sensor_id;sensor_type;location;lat;lon;timestamp;pressure;altitude;pressure_sealevel;temperature;humidity
22582;BME280;47125;48.542;9.052;2023-01-30T00:03:35;96596.97;;;-0.01;74.40
22582;BME280;47125;48.542;9.052;2023-01-30T00:13:39;96598.66;;;0.09;73.69
22582;BME280;47125;48.542;9.052;2023-01-30T00:23:42;96589.84;;;0.18;73.35
22582;BME280;47125;48.542;9.052;2023-01-30T00:33:46;96560.59;;;0.13;73.07
22582;BME280;47125;48.542;9.052;2023-01-30T00:43:49;96548.41;;;0.04;73.03
22582;BME280;47125;48.542;9.052;2023-01-30T00:54:26;96532.50;;;0.05;72.96
22582;BME280;47125;48.542;9.052;2023-01-30T01:04:29;96540.53;;;0.04;72.76
22582;BME280;47125;48.542;9.052;2023-01-30T01:14:33;96564.13;;;-0.05;72.81
22582;BME280;47125;48.542;9.052;2023-01-30T01:24:36;96584.03;;;0.06;72.15
22582;BME280;47125;48.542;9.052;2023-01-30T01:34:39;96624.44;;;0.21;71.49
22582;BME280;47125;48.542;9.052;2023-01-30T01:44:59;96622.00;;;0.20;71.97
22582;BME280;47125;48.542;9.052;2023-01-30T01:55:05;96607.50;;;0.08;72.18
22582;BME280;47125;48.542;9.052;2023-01-30T02:05:08;96603.28;;;0.15;71.74
22582;BME280;47125;48.542;9.052;2023-01-30T02:15:14;96607.22;;;0.19;72.13
22582;BME280;47125;48.542;9.052;2023-01-30T02:25:24;96588.50;;;0.22;71.67
22582;BME280;47125;48.542;9.052;2023-01-30T02:35:40;96637.44;;;0.23;71.30
22582;BME280;47125;48.542;9.052;2023-01-30T02:45:47;96593.53;;;0.07;70.99
22582;BME280;47125;48.542;9.052;2023-01-30T02:55:54;96623.25;;;0.08;71.14
22582;BME280;47125;48.542;9.052;2023-01-30T03:06:00;96576.66;;;0.10;70.79
22582;BME280;47125;48.542;9.052;2023-01-30T03:16:09;96602.16;;;-0.09;70.92
22582;BME280;47125;48.542;9.052;2023-01-30T03:26:15;96572.31;;;-0.08;71.00
22582;BME280;47125;48.542;9.052;2023-01-30T03:36:20;96570.63;;;-0.17;71.03
22582;BME280;47125;48.542;9.052;2023-01-30T03:46:23;96456.22;;;-0.77;73.48
22582;BME280;47125;48.542;9.052;2023-01-30T03:56:26;96485.81;;;-0.59;73.50
22582;BME280;47125;48.542;9.052;2023-01-30T04:06:29;96517.81;;;-0.22;72.18
22582;BME280;47125;48.542;9.052;2023-01-30T04:16:33;96511.88;;;-0.24;72.31
22582;BME280;47125;48.542;9.052;2023-01-30T04:26:35;96527.81;;;-0.17;72.59
22582;BME280;47125;48.542;9.052;2023-01-30T04:36:39;96538.81;;;-0.22;73.09
22582;BME280;47125;48.542;9.052;2023-01-30T04:46:41;96523.78;;;-0.37;73.62
22582;BME280;47125;48.542;9.052;2023-01-30T04:56:45;96525.25;;;-0.43;74.20
22582;BME280;47125;48.542;9.052;2023-01-30T05:06:48;96547.25;;;-0.36;74.23
22582;BME280;47125;48.542;9.052;2023-01-30T05:16:51;96551.09;;;-0.22;73.88
22582;BME280;47125;48.542;9.052;2023-01-30T05:26:54;96527.13;;;-0.27;74.78
22582;BME280;47125;48.542;9.052;2023-01-30T05:36:58;96512.69;;;-0.23;74.43
22582;BME280;47125;48.542;9.052;2023-01-30T05:47:01;96497.81;;;-0.15;74.20
22582;BME280;47125;48.542;9.052;2023-01-30T05:57:04;96492.13;;;-0.02;72.93
22582;BME280;47125;48.542;9.052;2023-01-30T06:07:07;96482.78;;;0.04;72.22
22582;BME280;47125;48.542;9.052;2023-01-30T06:17:10;96488.84;;;0.12;70.97
22582;BME280;47125;48.542;9.052;2023-01-30T06:27:13;96491.06;;;0.33;69.97
22582;BME280;47125;48.542;9.052;2023-01-30T06:37:19;96464.63;;;0.26;69.47
22582;BME280;47125;48.542;9.052;2023-01-30T06:47:21;96478.41;;;0.28;68.06
22582;BME280;47125;48.542;9.052;2023-01-30T06:57:25;96470.53;;;0.20;67.45
22582;BME280;47125;48.542;9.052;2023-01-30T07:07:27;96458.06;;;0.38;66.67
22582;BME280;47125;48.542;9.052;2023-01-30T07:17:31;96456.41;;;0.37;66.33
22582;BME280;47125;48.542;9.052;2023-01-30T07:27:34;96473.31;;;0.27;66.17
22582;BME280;47125;48.542;9.052;2023-01-30T07:37:38;96487.16;;;0.53;65.85
22582;BME280;47125;48.542;9.052;2023-01-30T07:47:40;96480.88;;;0.46;66.20
22582;BME280;47125;48.542;9.052;2023-01-30T07:57:44;96483.69;;;0.52;65.86
22582;BME280;47125;48.542;9.052;2023-01-30T08:07:46;96487.97;;;0.70;65.82
22582;BME280;47125;48.542;9.052;2023-01-30T08:17:54;96465.78;;;0.72;65.83
22582;BME280;47125;48.542;9.052;2023-01-30T08:27:57;96514.25;;;0.86;65.28
22582;BME280;47125;48.542;9.052;2023-01-30T08:38:02;96495.00;;;0.69;65.90
22582;BME280;47125;48.542;9.052;2023-01-30T08:48:08;96484.66;;;1.16;65.37
22582;BME280;47125;48.542;9.052;2023-01-30T08:58:12;96492.34;;;1.34;65.90
22582;BME280;47125;48.542;9.052;2023-01-30T09:08:16;96491.03;;;1.38;66.49
22582;BME280;47125;48.542;9.052;2023-01-30T09:18:20;96447.13;;;1.30;67.12
22582;BME280;47125;48.542;9.052;2023-01-30T09:28:22;96442.84;;;1.37;68.50
22582;BME280;47125;48.542;9.052;2023-01-30T09:38:26;96466.41;;;1.70;68.99
22582;BME280;47125;48.542;9.052;2023-01-30T09:48:30;96436.22;;;2.19;69.25
22582;BME280;47125;48.542;9.052;2023-01-30T09:58:40;96439.97;;;2.47;68.81
22582;BME280;47125;48.542;9.052;2023-01-30T10:08:49;96424.31;;;3.06;68.08
22582;BME280;47125;48.542;9.052;2023-01-30T10:19:02;96383.28;;;3.18;69.35
22582;BME280;47125;48.542;9.052;2023-01-30T10:29:11;96375.91;;;3.93;67.29
22582;BME280;47125;48.542;9.052;2023-01-30T10:39:19;96375.25;;;3.91;67.72
22582;BME280;47125;48.542;9.052;2023-01-30T10:49:25;96363.56;;;4.00;67.79
22582;BME280;47125;48.542;9.052;2023-01-30T10:59:36;96346.25;;;3.76;70.87
22582;BME280;47125;48.542;9.052;2023-01-30T11:09:41;96355.19;;;3.97;70.99
22582;BME280;47125;48.542;9.052;2023-01-30T11:19:52;96360.19;;;4.06;70.37
22582;BME280;47125;48.542;9.052;2023-01-30T11:30:01;96353.59;;;3.96;70.58
22582;BME280;47125;48.542;9.052;2023-01-30T11:40:11;96338.19;;;3.99;70.13
22582;BME280;47125;48.542;9.052;2023-01-30T11:50:22;96343.00;;;3.96;71.16
22582;BME280;47125;48.542;9.052;2023-01-30T12:00:37;96346.41;;;3.54;72.29
22582;BME280;47125;48.542;9.052;2023-01-30T12:10:40;96340.41;;;3.30;73.56
22582;BME280;47125;48.542;9.052;2023-01-30T12:20:47;96340.84;;;3.49;73.44
22582;BME280;47125;48.542;9.052;2023-01-30T12:30:52;96318.47;;;3.45;73.23
22582;BME280;47125;48.542;9.052;2023-01-30T12:41:01;96315.53;;;3.40;73.36
22582;BME280;47125;48.542;9.052;2023-01-30T12:51:11;96317.53;;;3.52;73.34
22582;BME280;47125;48.542;9.052;2023-01-30T13:01:22;96315.72;;;3.53;73.59
22582;BME280;47125;48.542;9.052;2023-01-30T13:11:41;96351.75;;;3.46;74.31
22582;BME280;47125;48.542;9.052;2023-01-30T13:21:49;96349.78;;;3.48;74.28
22582;BME280;47125;48.542;9.052;2023-01-30T13:31:58;96359.78;;;3.52;74.47
22582;BME280;47125;48.542;9.052;2023-01-30T13:42:06;96360.78;;;3.51;74.75
22582;BME280;47125;48.542;9.052;2023-01-30T13:52:12;96358.59;;;3.40;75.45
22582;BME280;47125;48.542;9.052;2023-01-30T14:02:21;96374.91;;;3.29;78.06
22582;BME280;47125;48.542;9.052;2023-01-30T14:12:24;96382.09;;;3.35;77.57
22582;BME280;47125;48.542;9.052;2023-01-30T14:22:29;96406.56;;;3.14;78.85
22582;BME280;47125;48.542;9.052;2023-01-30T14:32:35;96418.41;;;3.18;79.53
22582;BME280;47125;48.542;9.052;2023-01-30T14:53:10;96458.16;;;3.17;81.09
22582;BME280;47125;48.542;9.052;2023-01-30T15:03:15;96469.97;;;3.06;82.46
22582;BME280;47125;48.542;9.052;2023-01-30T15:13:26;96509.25;;;3.01;82.46
22582;BME280;47125;48.542;9.052;2023-01-30T15:23:42;96513.81;;;3.07;82.07
22582;BME280;47125;48.542;9.052;2023-01-30T15:33:48;96515.53;;;3.00;82.46
22582;BME280;47125;48.542;9.052;2023-01-30T15:44:08;96509.13;;;2.95;82.86
22582;BME280;47125;48.542;9.052;2023-01-30T15:54:18;96518.56;;;2.89;82.43
22582;BME280;47125;48.542;9.052;2023-01-30T16:14:29;96554.88;;;2.87;82.34
22582;BME280;47125;48.542;9.052;2023-01-30T16:24:31;96548.69;;;2.95;81.94
22582;BME280;47125;48.542;9.052;2023-01-30T16:34:37;96549.81;;;2.77;82.64
22582;BME280;47125;48.542;9.052;2023-01-30T16:44:39;96574.03;;;2.81;83.28
22582;BME280;47125;48.542;9.052;2023-01-30T16:54:44;96602.06;;;2.82;83.70
22582;BME280;47125;48.542;9.052;2023-01-30T17:04:47;96603.81;;;2.90;82.84
22582;BME280;47125;48.542;9.052;2023-01-30T17:14:56;96613.06;;;2.86;82.76
22582;BME280;47125;48.542;9.052;2023-01-30T17:25:22;96627.25;;;2.85;83.66
22582;BME280;47125;48.542;9.052;2023-01-30T17:35:29;96632.19;;;2.88;83.19
22582;BME280;47125;48.542;9.052;2023-01-30T17:45:31;96639.28;;;2.87;83.21
22582;BME280;47125;48.542;9.052;2023-01-30T17:55:36;96657.88;;;2.94;82.90
22582;BME280;47125;48.542;9.052;2023-01-30T18:05:38;96673.94;;;3.07;82.47
22582;BME280;47125;48.542;9.052;2023-01-30T18:15:42;96693.78;;;3.25;81.55
22582;BME280;47125;48.542;9.052;2023-01-30T18:25:45;96710.59;;;3.24;81.95
22582;BME280;47125;48.542;9.052;2023-01-30T18:35:49;96717.41;;;3.19;82.60
22582;BME280;47125;48.542;9.052;2023-01-30T18:45:59;96721.06;;;3.18;82.35
22582;BME280;47125;48.542;9.052;2023-01-30T18:56:05;96725.03;;;3.14;82.31
22582;BME280;47125;48.542;9.052;2023-01-30T19:06:08;96729.19;;;3.08;82.72
22582;BME280;47125;48.542;9.052;2023-01-30T19:16:13;96757.53;;;3.14;82.53
22582;BME280;47125;48.542;9.052;2023-01-30T19:26:16;96769.72;;;3.15;83.38
22582;BME280;47125;48.542;9.052;2023-01-30T19:36:21;96792.50;;;3.08;83.64
22582;BME280;47125;48.542;9.052;2023-01-30T19:46:23;96788.13;;;3.31;82.44
22582;BME280;47125;48.542;9.052;2023-01-30T19:56:28;96793.50;;;3.07;83.76
22582;BME280;47125;48.542;9.052;2023-01-30T20:06:31;96826.78;;;3.16;83.41
22582;BME280;47125;48.542;9.052;2023-01-30T20:16:35;96821.66;;;3.23;82.94
22582;BME280;47125;48.542;9.052;2023-01-30T20:26:38;96824.13;;;3.16;83.44
22582;BME280;47125;48.542;9.052;2023-01-30T20:36:42;96840.91;;;3.31;83.20
22582;BME280;47125;48.542;9.052;2023-01-30T20:46:45;96845.50;;;3.38;81.97
22582;BME280;47125;48.542;9.052;2023-01-30T20:56:55;96856.59;;;3.33;82.71
22582;BME280;47125;48.542;9.052;2023-01-30T21:06:57;96857.28;;;3.27;82.51
22582;BME280;47125;48.542;9.052;2023-01-30T21:17:01;96866.81;;;3.28;82.65
22582;BME280;47125;48.542;9.052;2023-01-30T21:27:04;96878.38;;;3.27;83.32
22582;BME280;47125;48.542;9.052;2023-01-30T21:37:08;96877.91;;;3.23;83.16
22582;BME280;47125;48.542;9.052;2023-01-30T21:47:27;96891.34;;;3.37;82.01
22582;BME280;47125;48.542;9.052;2023-01-30T21:57:31;96914.66;;;3.33;82.45
22582;BME280;47125;48.542;9.052;2023-01-30T22:07:34;96922.59;;;3.33;82.06
22582;BME280;47125;48.542;9.052;2023-01-30T22:17:38;96919.75;;;3.34;82.58
22582;BME280;47125;48.542;9.052;2023-01-30T22:27:40;96934.13;;;3.32;82.63
22582;BME280;47125;48.542;9.052;2023-01-30T22:37:44;96942.66;;;3.50;81.74
22582;BME280;47125;48.542;9.052;2023-01-30T22:47:46;96929.94;;;3.46;81.85
22582;BME280;47125;48.542;9.052;2023-01-30T22:57:51;96930.47;;;3.41;81.83
22582;BME280;47125;48.542;9.052;2023-01-30T23:07:54;96939.19;;;3.50;81.56
22582;BME280;47125;48.542;9.052;2023-01-30T23:17:57;96929.34;;;3.36;82.01
22582;BME280;47125;48.542;9.052;2023-01-30T23:28:17;96916.13;;;3.36;82.54
22582;BME280;47125;48.542;9.052;2023-01-30T23:38:21;96915.97;;;3.29;82.24
22582;BME280;47125;48.542;9.052;2023-01-30T23:48:24;96919.78;;;3.26;82.29
22582;BME280;47125;48.542;9.052;2023-01-30T23:58:28;96923.72;;;3.30;81.92
